Agnew, Washington
Current Conditions -  °F | °C
As of 1:53 PM on Tuesday 25 Nov 2014 (Local Time) from KCLM Reporting Station
Light Rain Light Rain  
Wind Chill: 42°   Ceiling: 300
Heat Index: 46°   Visibility: 3mi
Dew Point: 44°   Wind: 7mph
Humidity: 93%   Direction: 100°E
Pressure: 30.2"   Gusts: NA
Location:  48.0203°N, 123.478°W
Report Text: KCLM 252153Z AUTO 10006KT 3SM -RA BR BKN003 OVC007 08/07 A3020 RMK AO2 SLP227 P0002 T00780067
Loading
Personal Weather Stations






























Interactive Weather Map New forecast layout! Learn more

10-Day Weather Forecast

Advertisements
Track Severe Weather on mobile